Time;durP1;ratioP1;P1;durP2;ratioP2;P2;SDS_P1;SDS_P2;PMS_P1;PMS_P2;Temp;Humidity;BMP_temperature;BMP_pressure;BME280_temperature;BME280_humidity;BME280_pressure;Samples;Min_cycle;Max_cycle;Signal;HPM_P1;HPM_P2
2022/07/20 00:00:49;;;;;;;3.22;2.10;;;27.70;39.80;;;;;;6107031;23;20036;-81
2022/07/20 00:03:14;;;;;;;2.30;2.00;;;27.60;39.90;;;;;;6083708;23;20025;-80
2022/07/20 00:05:42;;;;;;;3.17;1.77;;;27.60;40.10;;;;;;6104981;23;20663;-80
2022/07/20 00:08:09;;;;;;;1.90;1.73;;;27.50;40.10;;;;;;6109987;23;20017;-81
2022/07/20 00:13:23;;;;;;;2.85;1.80;;;27.40;40.30;;;;;;6116616;23;20010;-81
2022/07/20 00:15:49;;;;;;;2.00;1.70;;;27.30;40.40;;;;;;6109206;23;20017;-80
2022/07/20 00:18:15;;;;;;;2.10;1.90;;;27.20;40.60;;;;;;6111422;23;20081;-81
2022/07/20 00:20:41;;;;;;;3.53;1.97;;;27.10;40.70;;;;;;6108016;23;20518;-81
2022/07/20 00:23:07;;;;;;;4.30;1.95;;;27.00;41.00;;;;;;6110899;23;20017;-81
2022/07/20 00:25:33;;;;;;;2.67;1.90;;;26.90;40.90;;;;;;6101480;23;20342;-80
2022/07/20 00:27:59;;;;;;;2.50;1.80;;;26.80;41.10;;;;;;6089674;23;20401;-82
2022/07/20 00:30:25;;;;;;;4.17;2.50;;;26.80;41.10;;;;;;6108476;23;20245;-82
2022/07/20 00:32:51;;;;;;;3.60;2.67;;;26.70;40.90;;;;;;6102860;23;20023;-82
2022/07/20 00:35:17;;;;;;;5.07;3.70;;;26.70;41.20;;;;;;6082428;23;20505;-83
2022/07/20 00:37:44;;;;;;;6.77;4.53;;;26.70;41.50;;;;;;6071907;23;20568;-82
2022/07/20 00:40:12;;;;;;;6.03;5.17;;;26.70;41.90;;;;;;6083194;23;20238;-81
2022/07/20 00:42:38;;;;;;;7.68;5.40;;;26.80;42.40;;;;;;6070166;23;20040;-82
2022/07/20 00:45:05;;;;;;;10.85;5.38;;;26.90;42.60;;;;;;6109706;23;20014;-82
2022/07/20 00:47:31;;;;;;;8.88;5.75;;;26.90;42.80;;;;;;6102306;23;20018;-82
2022/07/20 00:49:57;;;;;;;7.03;5.53;;;27.00;42.70;;;;;;6082944;23;20485;-82
2022/07/20 00:52:23;;;;;;;6.85;5.57;;;27.20;42.80;;;;;;6098477;23;20604;-82
2022/07/20 00:54:50;;;;;;;8.23;5.80;;;27.30;42.80;;;;;;6075227;23;20672;-82
2022/07/20 00:57:16;;;;;;;8.27;6.27;;;27.30;42.90;;;;;;6103563;23;20021;-82
2022/07/20 00:59:42;;;;;;;10.27;6.90;;;27.40;43.10;;;;;;6109730;23;20029;-82
2022/07/20 01:02:08;;;;;;;9.35;6.82;;;27.50;43.10;;;;;;6105858;23;20053;-82
2022/07/20 01:04:34;;;;;;;10.47;7.43;;;27.50;43.30;;;;;;6111890;23;20010;-81
2022/07/20 01:07:00;;;;;;;11.45;7.20;;;27.60;43.60;;;;;;6076391;23;20018;-82
2022/07/20 01:09:26;;;;;;;10.10;7.47;;;27.60;43.60;;;;;;6100530;23;20065;-81
2022/07/20 01:11:52;;;;;;;12.70;8.15;;;27.60;43.70;;;;;;6082389;23;20013;-82
2022/07/20 01:14:17;;;;;;;11.43;8.20;;;27.60;43.90;;;;;;6098449;23;20041;-82
2022/07/20 01:16:43;;;;;;;10.97;8.63;;;27.60;44.00;;;;;;6082849;23;20342;-82
2022/07/20 01:19:09;;;;;;;11.23;8.37;;;27.60;44.10;;;;;;6105475;23;20261;-82
2022/07/20 01:21:40;;;;;;;10.63;8.30;;;27.70;44.30;;;;;;6096672;23;20287;-82
2022/07/20 01:24:09;;;;;;;12.03;8.80;;;27.60;44.60;;;;;;6080199;23;20241;-82
2022/07/20 01:26:37;;;;;;;13.00;8.20;;;27.60;44.70;;;;;;6100125;23;20016;-81
2022/07/20 01:29:03;;;;;;;13.65;8.60;;;27.60;44.90;;;;;;6074274;23;20065;-82
2022/07/20 01:31:29;;;;;;;13.63;8.63;;;27.60;45.10;;;;;;6111861;23;20010;-81
2022/07/20 01:33:54;;;;;;;11.60;9.17;;;27.60;45.40;;;;;;6103243;23;20460;-82
2022/07/20 01:36:20;;;;;;;10.43;8.32;;;27.50;45.40;;;;;;6112253;23;20009;-82
2022/07/20 01:38:45;;;;;;;12.00;9.40;;;27.50;45.50;;;;;;6103054;23;20140;-81
2022/07/20 01:41:11;;;;;;;12.80;8.43;;;27.50;45.60;;;;;;6082997;23;20010;-81
2022/07/20 01:43:37;;;;;;;11.82;8.57;;;27.40;45.50;;;;;;6102818;23;20018;-81
2022/07/20 01:46:03;;;;;;;11.37;8.53;;;27.40;45.80;;;;;;6107764;23;20202;-82
2022/07/20 01:48:29;;;;;;;12.70;8.88;;;27.40;45.80;;;;;;6110615;23;20097;-81
2022/07/20 01:50:55;;;;;;;13.70;8.57;;;27.40;46.10;;;;;;6078682;23;20428;-81
2022/07/20 01:53:20;;;;;;;12.05;8.70;;;27.30;46.20;;;;;;6081790;23;20022;-81
2022/07/20 01:55:46;;;;;;;13.60;8.57;;;27.30;46.30;;;;;;6102236;23;20037;-82
2022/07/20 01:58:11;;;;;;;11.10;8.65;;;27.20;46.40;;;;;;6086974;23;20085;-82
2022/07/20 02:00:37;;;;;;;12.93;8.90;;;27.20;46.60;;;;;;6073421;23;20410;-82
2022/07/20 02:03:03;;;;;;;13.10;8.63;;;27.20;46.80;;;;;;6105316;23;20014;-82
2022/07/20 02:05:29;;;;;;;12.40;8.97;;;27.10;46.80;;;;;;6106420;23;20014;-82
2022/07/20 02:07:54;;;;;;;11.95;8.95;;;27.10;47.00;;;;;;6101967;23;20394;-82
2022/07/20 02:10:20;;;;;;;12.70;8.97;;;27.10;47.10;;;;;;6086899;23;20018;-81
2022/07/20 02:12:45;;;;;;;13.80;8.65;;;27.00;47.30;;;;;;6104753;23;20323;-82
2022/07/20 02:16:14;;;;;;;13.20;9.50;;;27.00;47.50;;;;;;6102853;23;20061;-82
2022/07/20 02:17:57;;;;;;;12.40;9.13;;;27.00;47.60;;;;;;6108956;23;20220;-81
2022/07/20 02:20:23;;;;;;;14.13;9.10;;;26.90;47.60;;;;;;6087573;23;20369;-81
2022/07/20 02:22:48;;;;;;;12.98;8.93;;;26.90;47.70;;;;;;6096296;23;20382;-81
2022/07/20 02:25:14;;;;;;;12.47;8.77;;;26.90;48.00;;;;;;6082365;23;20006;-82
2022/07/20 02:27:40;;;;;;;12.17;8.87;;;26.90;48.00;;;;;;6077609;23;20126;-81
2022/07/20 02:30:06;;;;;;;13.05;9.40;;;26.80;48.10;;;;;;6077289;23;20328;-82
2022/07/20 02:32:31;;;;;;;12.05;9.00;;;26.80;48.30;;;;;;6105675;23;20010;-81
2022/07/20 02:34:57;;;;;;;12.20;8.93;;;26.70;48.40;;;;;;6084230;23;20045;-82
2022/07/20 02:37:22;;;;;;;11.40;8.97;;;26.70;48.40;;;;;;6107999;23;20169;-81
2022/07/20 02:39:48;;;;;;;10.63;8.18;;;26.70;48.60;;;;;;6072814;23;20198;-81
2022/07/20 02:42:13;;;;;;;12.43;9.23;;;26.60;48.60;;;;;;6088375;23;20051;-81
2022/07/20 02:44:39;;;;;;;12.00;8.47;;;26.60;48.70;;;;;;6104236;23;20065;-81
2022/07/20 02:47:05;;;;;;;12.70;8.50;;;26.50;48.70;;;;;;6094893;23;20654;-81
2022/07/20 02:49:30;;;;;;;12.43;9.07;;;26.50;49.00;;;;;;6112355;23;20085;-81
2022/07/20 02:51:56;;;;;;;13.82;8.98;;;26.50;49.10;;;;;;6110866;23;20676;-81
2022/07/20 02:54:23;;;;;;;12.53;8.70;;;26.40;49.10;;;;;;6107397;23;20013;-81
2022/07/20 02:56:48;;;;;;;12.30;9.10;;;26.40;49.30;;;;;;6099920;23;20010;-80
2022/07/20 02:59:14;;;;;;;11.57;9.07;;;26.40;49.40;;;;;;6080638;23;20105;-82
2022/07/20 03:01:40;;;;;;;12.48;9.00;;;26.40;49.60;;;;;;6095305;23;20328;-81
2022/07/20 03:04:05;;;;;;;12.07;8.63;;;26.40;49.70;;;;;;6083907;23;20077;-81
2022/07/20 03:06:31;;;;;;;12.70;8.73;;;26.40;49.80;;;;;;6085162;23;20022;-81
2022/07/20 03:08:56;;;;;;;12.90;8.80;;;26.30;49.90;;;;;;6078933;23;20034;-81
2022/07/20 03:11:22;;;;;;;11.43;8.85;;;26.30;50.00;;;;;;6081853;23;20412;-81
2022/07/20 03:13:48;;;;;;;11.37;8.90;;;26.30;50.10;;;;;;6103043;23;20010;-80
2022/07/20 03:16:13;;;;;;;11.80;8.47;;;26.30;50.30;;;;;;6088488;23;20014;-81
2022/07/20 03:18:39;;;;;;;12.10;8.82;;;26.20;50.40;;;;;;6096018;23;20041;-81
2022/07/20 03:21:04;;;;;;;13.33;9.00;;;26.20;50.70;;;;;;6085816;23;20018;-81
2022/07/20 03:23:30;;;;;;;12.70;8.52;;;26.20;50.70;;;;;;6084451;23;20014;-81
2022/07/20 03:25:56;;;;;;;14.63;9.27;;;26.10;50.80;;;;;;6100468;23;20277;-82
2022/07/20 03:28:21;;;;;;;10.65;8.20;;;26.10;50.90;;;;;;6080849;23;20041;-82
2022/07/20 03:30:47;;;;;;;12.20;8.80;;;26.10;50.90;;;;;;6076031;23;20088;-82
2022/07/20 03:33:12;;;;;;;12.57;8.60;;;26.10;51.10;;;;;;6075948;23;20013;-81
2022/07/20 03:35:38;;;;;;;14.33;8.90;;;26.00;51.10;;;;;;6103046;23;20230;-81
2022/07/20 03:38:04;;;;;;;12.53;8.50;;;26.00;51.10;;;;;;6111674;23;20010;-81
2022/07/20 03:40:29;;;;;;;12.77;8.20;;;26.00;51.20;;;;;;6103186;23;20013;-81
2022/07/20 03:42:55;;;;;;;13.60;8.83;;;26.00;51.30;;;;;;6103508;23;20013;-81
2022/07/20 03:45:21;;;;;;;11.20;8.20;;;26.00;51.30;;;;;;6082945;23;20081;-81
2022/07/20 03:47:47;;;;;;;13.07;8.32;;;26.00;51.50;;;;;;6065583;23;20351;-82
2022/07/20 03:50:12;;;;;;;12.23;8.37;;;25.90;51.50;;;;;;6112754;23;20006;-81
2022/07/20 03:52:38;;;;;;;11.97;8.23;;;25.90;51.50;;;;;;6085758;23;20684;-82
2022/07/20 03:55:04;;;;;;;14.75;8.95;;;25.90;51.70;;;;;;6111641;23;20017;-81
2022/07/20 03:57:30;;;;;;;12.35;8.40;;;25.90;51.90;;;;;;6103987;23;20010;-80
2022/07/20 03:59:55;;;;;;;12.03;8.90;;;25.90;51.90;;;;;;6100597;23;20064;-81
2022/07/20 04:02:21;;;;;;;11.07;8.53;;;25.90;52.00;;;;;;6088338;23;20029;-81
2022/07/20 04:04:47;;;;;;;11.65;8.60;;;25.80;52.00;;;;;;6072604;23;20036;-81
2022/07/20 04:07:12;;;;;;;13.83;9.20;;;25.80;52.00;;;;;;6110400;23;20150;-82
2022/07/20 04:09:44;;;;;;;11.98;8.18;;;25.70;52.10;;;;;;6109118;23;20348;-81
2022/07/20 04:12:13;;;;;;;11.10;8.30;;;25.70;52.10;;;;;;6106645;23;20021;-81
2022/07/20 04:14:39;;;;;;;12.23;8.40;;;25.70;52.30;;;;;;6098851;23;20070;-80
2022/07/20 04:17:05;;;;;;;13.38;8.85;;;25.70;52.30;;;;;;6084786;23;20010;-81
2022/07/20 04:19:30;;;;;;;12.80;9.07;;;25.60;52.30;;;;;;6107700;23;20319;-81
2022/07/20 04:21:58;;;;;;;13.50;8.87;;;25.60;52.50;;;;;;6105637;23;20627;-81
2022/07/20 04:24:25;;;;;;;12.13;8.23;;;25.50;52.60;;;;;;6086926;23;20449;-81
2022/07/20 04:26:51;;;;;;;13.13;8.70;;;25.50;52.70;;;;;;6083824;23;20013;-81
2022/07/20 04:29:17;;;;;;;11.80;8.47;;;25.50;52.80;;;;;;6102641;23;20049;-81
2022/07/20 04:31:42;;;;;;;13.70;9.48;;;25.50;53.10;;;;;;6099119;23;20033;-81
2022/07/20 04:34:08;;;;;;;13.07;8.63;;;25.40;53.00;;;;;;6103029;23;20324;-81
2022/07/20 04:36:34;;;;;;;11.70;8.35;;;25.30;53.10;;;;;;6102223;23;20022;-81
2022/07/20 04:38:59;;;;;;;13.13;8.73;;;25.30;53.20;;;;;;6107443;23;20006;-81
2022/07/20 04:41:25;;;;;;;12.10;8.52;;;25.30;53.40;;;;;;6108765;23;20088;-81
2022/07/20 04:43:50;;;;;;;12.43;8.30;;;25.30;53.50;;;;;;6108963;23;20010;-81
2022/07/20 04:46:16;;;;;;;12.40;8.68;;;25.20;53.60;;;;;;6078019;23;20033;-80
2022/07/20 04:48:42;;;;;;;12.83;8.27;;;25.30;53.70;;;;;;6115857;23;20014;-81
2022/07/20 04:51:08;;;;;;;13.15;8.55;;;25.20;53.70;;;;;;6093425;23;20073;-81
2022/07/20 04:53:33;;;;;;;11.83;8.43;;;25.20;53.80;;;;;;6114287;23;20490;-80
2022/07/20 04:55:59;;;;;;;13.27;8.27;;;25.20;54.00;;;;;;6082836;23;20478;-81
2022/07/20 04:58:24;;;;;;;11.83;8.50;;;25.20;54.10;;;;;;6114186;23;20010;-80
2022/07/20 05:00:50;;;;;;;11.65;8.00;;;25.20;54.80;;;;;;6103321;23;20084;-80
2022/07/20 05:03:16;;;;;;;14.13;7.87;;;25.20;54.30;;;;;;6078286;23;20256;-82
2022/07/20 05:05:41;;;;;;;11.05;8.07;;;25.20;54.40;;;;;;6091301;23;20009;-81
2022/07/20 05:08:07;;;;;;;11.77;7.90;;;25.20;54.40;;;;;;6082051;23;20531;-81
2022/07/20 05:10:33;;;;;;;12.90;8.07;;;25.20;54.60;;;;;;6115305;23;20014;-81
2022/07/20 05:12:58;;;;;;;11.48;8.13;;;25.20;54.60;;;;;;6088222;23;20010;-81
2022/07/20 05:15:24;;;;;;;10.50;7.70;;;25.20;54.80;;;;;;6080868;23;20394;-81
2022/07/20 05:17:50;;;;;;;11.55;7.80;;;25.20;54.80;;;;;;6108983;23;20033;-81
2022/07/20 05:20:16;;;;;;;10.13;7.20;;;25.20;54.90;;;;;;6112434;23;20462;-80
2022/07/20 05:22:42;;;;;;;12.13;7.60;;;25.20;55.00;;;;;;6103849;23;20485;-81
2022/07/20 05:25:08;;;;;;;11.32;7.78;;;25.30;55.10;;;;;;6075641;23;20014;-80
2022/07/20 05:27:34;;;;;;;11.07;7.22;;;25.30;55.20;;;;;;6083374;23;20024;-81
2022/07/20 05:30:00;;;;;;;10.27;7.40;;;25.30;55.10;;;;;;6087001;23;20072;-81
2022/07/20 05:32:26;;;;;;;8.73;7.00;;;25.30;55.20;;;;;;6075487;23;20668;-81
2022/07/20 05:34:52;;;;;;;10.18;7.15;;;25.30;55.30;;;;;;6083646;23;20021;-81
2022/07/20 05:37:17;;;;;;;9.63;6.73;;;25.40;55.50;;;;;;6071864;23;20014;-80
2022/07/20 05:39:43;;;;;;;12.67;7.67;;;25.40;55.60;;;;;;6072559;23;20006;-81
2022/07/20 05:42:08;;;;;;;10.25;7.18;;;25.50;55.90;;;;;;6109999;23;20033;-81
2022/07/20 05:44:34;;;;;;;9.70;7.17;;;25.60;55.90;;;;;;6089243;23;20017;-81
2022/07/20 05:47:00;;;;;;;10.23;7.00;;;25.60;55.90;;;;;;6104603;23;20086;-81
2022/07/20 05:49:25;;;;;;;9.70;6.83;;;25.60;55.80;;;;;;6104744;23;20041;-82
2022/07/20 05:51:51;;;;;;;10.65;6.88;;;25.70;55.80;;;;;;6114142;23;20392;-81
2022/07/20 05:54:16;;;;;;;9.47;6.83;;;25.70;55.80;;;;;;6087784;23;20268;-82
2022/07/20 05:56:42;;;;;;;8.83;6.47;;;25.80;55.70;;;;;;6077403;23;20037;-81
2022/07/20 05:59:07;;;;;;;11.43;7.00;;;25.80;55.60;;;;;;6110113;23;20223;-80
2022/07/20 06:01:34;;;;;;;8.30;6.10;;;25.90;55.50;;;;;;6089267;23;20029;-82
2022/07/20 06:04:00;;;;;;;7.72;5.68;;;25.90;55.40;;;;;;6071006;23;20010;-80
2022/07/20 06:06:25;;;;;;;8.60;6.07;;;25.90;55.30;;;;;;6100823;23;20017;-81
2022/07/20 06:08:51;;;;;;;8.57;6.40;;;25.90;55.40;;;;;;6068565;23;20316;-81
2022/07/20 06:11:17;;;;;;;9.07;6.10;;;25.90;55.20;;;;;;6071379;23;20475;-81
2022/07/20 06:13:43;;;;;;;10.00;6.22;;;25.90;55.10;;;;;;6078523;23;20212;-81
2022/07/20 06:16:08;;;;;;;7.90;5.78;;;26.00;55.30;;;;;;6102940;23;20010;-81
2022/07/20 06:18:34;;;;;;;10.67;5.90;;;26.00;55.30;;;;;;6093536;23;20358;-81
2022/07/20 06:20:59;;;;;;;8.20;5.83;;;26.10;55.30;;;;;;6105166;23;20069;-81
2022/07/20 06:23:25;;;;;;;7.97;5.82;;;26.10;55.20;;;;;;6087923;23;20013;-82
2022/07/20 06:25:51;;;;;;;7.50;5.53;;;26.20;55.30;;;;;;6073335;23;20466;-82
2022/07/20 06:28:16;;;;;;;8.13;5.78;;;26.20;55.10;;;;;;6059687;23;20078;-82
2022/07/20 06:30:42;;;;;;;9.07;5.90;;;26.30;55.10;;;;;;6074383;23;20021;-81
2022/07/20 06:33:07;;;;;;;7.40;5.80;;;26.30;55.10;;;;;;6069521;23;20244;-82
2022/07/20 06:35:33;;;;;;;7.80;5.57;;;26.40;55.10;;;;;;6080103;23;20009;-81
2022/07/20 06:37:59;;;;;;;7.17;5.60;;;26.40;54.90;;;;;;6101137;23;20636;-82
2022/07/20 06:40:25;;;;;;;7.93;5.50;;;26.40;54.70;;;;;;6062769;23;20080;-82
2022/07/20 06:42:50;;;;;;;7.90;5.55;;;26.40;54.60;;;;;;6076116;23;20014;-81
2022/07/20 06:45:16;;;;;;;7.37;5.00;;;26.50;54.50;;;;;;6078887;23;20014;-81
2022/07/20 06:47:42;;;;;;;7.18;4.88;;;26.50;54.60;;;;;;6101758;23;20017;-81
2022/07/20 06:50:08;;;;;;;6.00;5.10;;;26.50;54.60;;;;;;6105966;23;20017;-83
2022/07/20 06:52:34;;;;;;;6.22;4.45;;;26.50;54.50;;;;;;6104519;23;20014;-82
2022/07/20 06:55:00;;;;;;;6.97;5.25;;;26.60;54.50;;;;;;6078903;23;20274;-81
2022/07/20 06:57:26;;;;;;;6.33;4.40;;;26.60;54.40;;;;;;6107339;23;20017;-81
2022/07/20 06:59:51;;;;;;;7.18;4.93;;;26.70;54.40;;;;;;6080557;23;20010;-82
2022/07/20 07:02:17;;;;;;;6.17;4.90;;;26.70;54.40;;;;;;6077730;23;20391;-80
2022/07/20 07:04:43;;;;;;;6.88;5.10;;;26.70;54.40;;;;;;6076256;23;20010;-82
2022/07/20 07:07:08;;;;;;;8.87;4.80;;;26.70;54.30;;;;;;6103336;23;20529;-81
2022/07/20 07:09:34;;;;;;;7.85;4.95;;;26.70;54.30;;;;;;6072681;23;20065;-82
2022/07/20 07:12:00;;;;;;;6.50;4.80;;;26.80;54.40;;;;;;6070638;23;20233;-82
2022/07/20 07:14:25;;;;;;;9.88;4.88;;;26.80;54.50;;;;;;6083928;23;20016;-80
2022/07/20 07:16:52;;;;;;;7.17;5.07;;;26.90;54.60;;;;;;6075335;23;20006;-81
2022/07/20 07:19:18;;;;;;;7.28;4.68;;;27.00;54.80;;;;;;6079743;23;20070;-81
2022/07/20 07:21:46;;;;;;;6.88;4.40;;;27.10;54.80;;;;;;6080726;23;20454;-82
2022/07/20 07:24:11;;;;;;;5.50;4.43;;;27.20;55.50;;;;;;6083445;23;20049;-82
2022/07/20 07:26:37;;;;;;;8.17;4.40;;;27.30;54.40;;;;;;6088045;23;20064;-79
2022/07/20 07:29:02;;;;;;;6.93;4.40;;;27.40;54.20;;;;;;6084581;23;20026;-81
2022/07/20 07:31:28;;;;;;;5.55;4.18;;;27.50;54.00;;;;;;6112832;23;20017;-82
2022/07/20 07:33:54;;;;;;;6.37;4.00;;;27.50;53.80;;;;;;6067716;23;20014;-81
2022/07/20 07:36:20;;;;;;;5.50;4.03;;;27.50;53.70;;;;;;6087003;23;20024;-82
2022/07/20 07:38:45;;;;;;;5.87;3.93;;;27.60;53.30;;;;;;6100551;23;20807;-81
2022/07/20 07:41:11;;;;;;;5.13;3.92;;;27.60;53.20;;;;;;6096798;23;20771;-82
2022/07/20 07:43:37;;;;;;;7.00;4.43;;;27.60;52.90;;;;;;6076578;23;20066;-81
2022/07/20 07:46:02;;;;;;;5.10;3.83;;;27.60;52.80;;;;;;6104414;23;20249;-82
2022/07/20 07:48:28;;;;;;;5.03;3.83;;;27.50;52.60;;;;;;6106712;23;20331;-80
2022/07/20 07:50:54;;;;;;;6.13;4.60;;;27.50;52.70;;;;;;6065873;23;20018;-81
2022/07/20 07:53:20;;;;;;;5.18;3.80;;;27.50;52.90;;;;;;6065667;23;20014;-81
2022/07/20 07:55:45;;;;;;;6.07;3.77;;;27.50;53.20;;;;;;6086739;23;20017;-82
2022/07/20 07:58:12;;;;;;;4.82;3.40;;;27.70;53.60;;;;;;6055052;23;20018;-81
2022/07/20 08:00:39;;;;;;;5.28;3.60;;;27.80;53.90;;;;;;6109475;23;20423;-82
2022/07/20 08:03:05;;;;;;;5.93;4.00;;;28.00;53.90;;;;;;6105191;23;20018;-81
2022/07/20 08:05:31;;;;;;;4.88;3.88;;;28.20;53.50;;;;;;6104546;23;20419;-82
2022/07/20 08:07:58;;;;;;;5.10;3.63;;;28.40;53.30;;;;;;6112236;23;20010;-81
2022/07/20 08:10:23;;;;;;;4.28;3.47;;;28.60;53.40;;;;;;6076755;23;20014;-82
2022/07/20 08:12:49;;;;;;;4.20;3.33;;;28.80;53.70;;;;;;6086932;23;20016;-82
2022/07/20 08:15:15;;;;;;;5.13;3.70;;;29.10;53.90;;;;;;6109115;23;20061;-82
2022/07/20 08:17:46;;;;;;;5.93;3.65;;;29.40;53.90;;;;;;6111001;23;20104;-82
2022/07/20 08:20:12;;;;;;;4.83;3.70;;;29.80;53.10;;;;;;6068536;23;20014;-82
2022/07/20 08:22:38;;;;;;;5.57;3.28;;;30.00;52.10;;;;;;6104318;23;20220;-82
2022/07/20 08:25:04;;;;;;;5.22;3.50;;;30.10;51.30;;;;;;6070087;23;20018;-81
2022/07/20 08:27:29;;;;;;;5.80;3.30;;;30.20;50.60;;;;;;6086280;23;20018;-80
2022/07/20 08:29:58;;;;;;;3.95;3.38;;;30.10;50.10;;;;;;6118459;23;20014;-81
2022/07/20 08:32:25;;;;;;;5.70;3.05;;;30.10;49.80;;;;;;6114510;23;20009;-80
2022/07/20 08:34:51;;;;;;;5.83;3.40;;;30.00;49.70;;;;;;6111248;23;20092;-81
2022/07/20 08:37:17;;;;;;;5.07;3.28;;;29.90;50.20;;;;;;6110065;23;20013;-82
2022/07/20 08:39:42;;;;;;;5.15;3.30;;;30.00;51.00;;;;;;6112233;23;20021;-81
2022/07/20 08:42:09;;;;;;;5.67;3.23;;;30.10;51.10;;;;;;6096614;23;20161;-82
2022/07/20 08:44:35;;;;;;;5.18;3.00;;;30.40;51.70;;;;;;6077933;23;20021;-81
2022/07/20 08:47:01;;;;;;;5.05;3.33;;;30.60;51.60;;;;;;6106807;23;20010;-81
2022/07/20 08:49:27;;;;;;;4.90;3.23;;;30.80;50.60;;;;;;6117091;23;20045;-82
2022/07/20 08:51:53;;;;;;;5.38;3.40;;;30.90;49.70;;;;;;6112344;23;20068;-82
2022/07/20 08:54:19;;;;;;;4.90;3.20;;;31.00;49.00;;;;;;6087972;23;20451;-82
2022/07/20 08:56:45;;;;;;;4.97;3.20;;;30.90;48.50;;;;;;6104856;23;20017;-81
2022/07/20 08:59:11;;;;;;;5.25;3.30;;;30.80;48.20;;;;;;6091682;23;20470;-81
2022/07/20 09:01:56;;;;;;;5.03;3.20;;;30.60;47.90;;;;;;6108291;23;20098;-81
2022/07/20 09:04:22;;;;;;;5.20;3.35;;;30.40;47.80;;;;;;6112475;23;20049;-81
2022/07/20 09:06:49;;;;;;;5.43;3.17;;;30.00;47.50;;;;;;6117359;23;20014;-82
2022/07/20 09:09:16;;;;;;;4.75;3.20;;;29.80;47.70;;;;;;6106569;23;20014;-81
2022/07/20 09:11:43;;;;;;;5.50;3.20;;;29.60;48.20;;;;;;6081643;23;20014;-82
2022/07/20 09:14:09;;;;;;;5.90;3.40;;;29.40;48.70;;;;;;6090067;23;20244;-82
2022/07/20 09:16:46;;;;;;;4.40;2.97;;;29.10;48.90;;;;;;6079652;23;20024;-82
2022/07/20 09:19:14;;;;;;;7.82;3.13;;;28.90;49.70;;;;;;6100790;23;20160;-82
2022/07/20 09:21:40;;;;;;;3.88;3.00;;;28.70;49.30;;;;;;6118189;23;20009;-82
2022/07/20 09:24:07;;;;;;;5.75;3.30;;;28.50;49.50;;;;;;6105798;23;20017;-81
2022/07/20 09:26:33;;;;;;;5.80;3.30;;;28.30;49.80;;;;;;6073585;23;20020;-82
2022/07/20 09:29:03;;;;;;;4.97;3.30;;;28.10;50.10;;;;;;6110675;23;20014;-82
2022/07/20 09:31:30;;;;;;;5.80;3.45;;;28.00;50.60;;;;;;6097240;23;20336;-81
2022/07/20 09:34:01;;;;;;;5.28;3.33;;;27.80;51.00;;;;;;6082516;23;20376;-81
2022/07/20 09:36:32;;;;;;;6.00;3.10;;;27.80;52.50;;;;;;6085812;23;20022;-82
2022/07/20 09:39:10;;;;;;;5.17;3.10;;;27.70;52.10;;;;;;6081236;23;20804;-81
2022/07/20 09:41:39;;;;;;;5.70;3.20;;;27.70;52.20;;;;;;6084636;23;20321;-81
2022/07/20 09:44:06;;;;;;;6.22;3.25;;;27.70;51.70;;;;;;6114310;23;20032;-82
2022/07/20 09:46:35;;;;;;;5.13;3.20;;;27.60;52.50;;;;;;6102442;23;20024;-82
2022/07/20 09:49:03;;;;;;;4.72;3.30;;;27.60;52.10;;;;;;6107503;23;20018;-82
2022/07/20 09:51:31;;;;;;;5.77;2.90;;;27.50;52.40;;;;;;6117615;23;20073;-82
2022/07/20 09:54:11;;;;;;;5.18;3.00;;;27.50;52.40;;;;;;6103719;23;20041;-82
2022/07/20 09:56:42;;;;;;;4.55;2.97;;;27.40;53.20;;;;;;6079341;23;20018;-82
2022/07/20 09:59:11;;;;;;;3.42;2.65;;;27.30;53.20;;;;;;6107366;23;20093;-83
2022/07/20 10:01:38;;;;;;;4.90;2.90;;;27.20;53.00;;;;;;6090707;23;20510;-82
2022/07/20 10:04:06;;;;;;;5.30;2.70;;;27.10;53.50;;;;;;6090811;23;20552;-83
2022/07/20 10:06:34;;;;;;;5.82;3.13;;;27.00;54.10;;;;;;6113957;23;20052;-83
2022/07/20 10:09:01;;;;;;;4.55;2.75;;;26.90;54.40;;;;;;6083707;23;20010;-83
2022/07/20 10:11:27;;;;;;;6.25;3.05;;;26.90;54.70;;;;;;6100508;23;21018;-83
2022/07/20 10:13:56;;;;;;;5.88;3.35;;;26.90;56.10;;;;;;6115229;23;20312;-83
2022/07/20 10:16:31;;;;;;;4.97;3.40;;;27.00;55.90;;;;;;6090501;23;20331;-83
2022/07/20 10:18:58;;;;;;;4.75;2.92;;;27.10;56.90;;;;;;6109471;23;20018;-83
2022/07/20 10:21:52;;;;;;;4.35;3.17;;;27.20;56.20;;;;;;6114191;23;20013;-83
2022/07/20 10:24:30;;;;;;;4.65;3.15;;;27.40;57.20;;;;;;6078270;23;20032;-82
2022/07/20 10:27:02;;;;;;;4.90;3.47;;;27.50;56.30;;;;;;6092075;23;20038;-83
2022/07/20 10:29:41;;;;;;;5.17;3.17;;;27.70;56.70;;;;;;6073217;23;20713;-82
2022/07/20 10:32:09;;;;;;;5.47;3.72;;;28.00;58.60;;;;;;6082321;23;20029;-82
2022/07/20 10:34:58;;;;;;;5.93;3.70;;;28.50;59.00;;;;;;6095268;23;20239;-83
2022/07/20 10:37:42;;;;;;;5.38;3.55;;;29.00;59.00;;;;;;6103874;23;20021;-83
2022/07/20 10:40:20;;;;;;;4.88;3.28;;;29.60;57.70;;;;;;6110363;23;20355;-82
2022/07/20 10:42:51;;;;;;;4.97;3.87;;;30.20;58.60;;;;;;6099128;23;20022;-82
2022/07/20 10:45:16;;;;;;;6.00;3.95;;;30.80;57.80;;;;;;6105108;23;20024;-83
2022/07/20 10:47:52;;;;;;;6.28;3.90;;;31.30;56.50;;;;;;6108497;23;20022;-83
2022/07/20 10:50:22;;;;;;;5.53;3.73;;;31.60;55.50;;;;;;6094690;23;20029;-82
2022/07/20 10:52:53;;;;;;;5.60;4.03;;;31.90;55.50;;;;;;6078095;23;20329;-83
2022/07/20 10:55:36;;;;;;;6.22;4.18;;;32.30;54.80;;;;;;6083956;23;20516;-83
2022/07/20 10:58:17;;;;;;;5.30;4.00;;;32.50;52.70;;;;;;6104392;23;20010;-83
2022/07/20 11:00:45;;;;;;;7.18;4.70;;;32.50;52.30;;;;;;6074062;23;20021;-82
2022/07/20 11:03:27;;;;;;;5.80;4.40;;;32.50;51.70;;;;;;6104050;23;20431;-82
2022/07/20 11:06:12;;;;;;;5.55;4.45;;;32.40;51.50;;;;;;6082993;23;20461;-83
2022/07/20 11:08:44;;;;;;;8.07;4.53;;;32.40;51.90;;;;;;6086007;23;20207;-82
2022/07/20 11:11:18;;;;;;;6.32;4.15;;;32.60;53.20;;;;;;6113824;23;20578;-82
2022/07/20 11:13:48;;;;;;;5.45;4.30;;;32.90;52.70;;;;;;6070563;23;20018;-83
2022/07/20 11:16:21;;;;;;;5.67;4.07;;;33.00;52.70;;;;;;6112756;23;20437;-82
2022/07/20 11:18:48;;;;;;;5.10;4.13;;;33.30;51.80;;;;;;6114066;23;20072;-81
2022/07/20 11:21:14;;;;;;;4.40;3.70;;;33.50;52.10;;;;;;6096004;23;20089;-81
2022/07/20 11:23:47;;;;;;;5.35;4.07;;;33.80;52.00;;;;;;6105598;23;20118;-82
2022/07/20 11:26:15;;;;;;;5.07;3.70;;;34.00;51.10;;;;;;6111091;23;20439;-81
2022/07/20 11:28:48;;;;;;;4.53;3.63;;;34.10;49.90;;;;;;6106163;23;20213;-81
2022/07/20 11:31:14;;;;;;;3.72;3.03;;;34.10;48.30;;;;;;6097683;23;20053;-82
2022/07/20 11:33:42;;;;;;;5.22;3.53;;;34.00;48.40;;;;;;6083611;23;20263;-81
2022/07/20 11:36:11;;;;;;;4.35;3.50;;;33.90;47.50;;;;;;6093490;23;20020;-81
2022/07/20 11:38:42;;;;;;;4.57;3.27;;;33.80;47.20;;;;;;6087273;23;20534;-82
2022/07/20 11:41:10;;;;;;;4.97;3.60;;;33.60;46.90;;;;;;6086124;23;20574;-82
2022/07/20 11:43:36;;;;;;;4.10;3.30;;;33.60;47.70;;;;;;6106914;23;20089;-81
2022/07/20 11:46:28;;;;;;;4.15;3.28;;;33.60;47.60;;;;;;6101828;23;20052;-81
2022/07/20 11:49:00;;;;;;;4.20;3.30;;;33.50;46.40;;;;;;6084137;23;20124;-82
2022/07/20 11:51:27;;;;;;;4.70;3.33;;;33.40;46.30;;;;;;6100662;23;20263;-81
2022/07/20 11:53:53;;;;;;;4.82;3.60;;;33.30;46.70;;;;;;6088330;23;20066;-82
2022/07/20 11:56:22;;;;;;;4.32;3.28;;;33.30;46.40;;;;;;6102178;23;20009;-82
2022/07/20 11:58:54;;;;;;;3.67;3.22;;;33.20;46.30;;;;;;6106350;23;20096;-81
2022/07/20 12:01:28;;;;;;;3.83;3.28;;;33.10;46.70;;;;;;6076436;23;20494;-82
2022/07/20 12:04:00;;;;;;;4.00;3.33;;;33.20;47.30;;;;;;6065206;23;20010;-82
2022/07/20 12:06:28;;;;;;;4.82;3.72;;;33.30;47.10;;;;;;6094675;23;20089;-81
2022/07/20 12:09:16;;;;;;;4.30;3.60;;;33.50;47.60;;;;;;6076647;23;20049;-82
2022/07/20 12:11:59;;;;;;;4.10;3.40;;;33.70;46.80;;;;;;6085709;23;20104;-82
2022/07/20 12:14:41;;;;;;;4.40;3.42;;;33.80;46.40;;;;;;6102711;23;20403;-82
2022/07/20 12:17:22;;;;;;;4.33;3.60;;;33.90;45.90;;;;;;6079128;23;20042;-82
2022/07/20 12:19:50;;;;;;;3.92;3.42;;;33.90;45.70;;;;;;6085221;23;20236;-82
2022/07/20 12:22:16;;;;;;;5.45;3.83;;;33.90;45.60;;;;;;6072857;23;20010;-81
2022/07/20 12:24:57;;;;;;;4.30;3.73;;;33.90;45.40;;;;;;6082830;23;20017;-83
2022/07/20 12:27:24;;;;;;;4.22;3.40;;;33.80;44.50;;;;;;6078207;23;20069;-81
2022/07/20 12:29:50;;;;;;;4.78;3.80;;;33.70;44.80;;;;;;6078504;23;20068;-82
2022/07/20 12:32:35;;;;;;;4.70;3.80;;;33.60;44.80;;;;;;6058920;23;20453;-82
2022/07/20 12:35:04;;;;;;;5.65;4.53;;;33.50;44.50;;;;;;6101856;23;20037;-82
2022/07/20 12:37:50;;;;;;;4.23;3.83;;;33.40;44.90;;;;;;6067345;23;20006;-82
2022/07/20 12:40:38;;;;;;;3.90;3.50;;;33.30;45.60;;;;;;6110800;23;20036;-82
2022/07/20 12:43:28;;;;;;;4.70;3.58;;;33.40;45.30;;;;;;6083882;23;20240;-82
2022/07/20 12:45:55;;;;;;;5.65;3.78;;;33.50;45.20;;;;;;6103006;23;20241;-82
2022/07/20 12:48:21;;;;;;;5.03;3.67;;;33.60;45.30;;;;;;6104789;23;20013;-83